aviador You're here:

OPRN Decoded Metar

ISLAMABAD in PAKISTAN
Report Time2017-08-20 19:00:00
UTC Time2017-08-20 19:14:19
Flight Rules mvfr MVFR
Wind130° at 10 kt
W.Decomp.*RWY 12: 9.9 kt HW 1.4 kt RCW
W.Rank130° ranks 2
Current wind is above 130° avg. (9.0)
Visibility7000 m
Phenomena:N/A
Clouds:Scattered 040 Hf
Expected CloudBase > 1,600 ft AGL from Temp-Dew spread
CeilingNone
Temp28°C (ISA +16)
Dew Point24°C (79% RH)
Heat Index31.9°C
QNH1006 hPa
Density Alt4,177 ft
Elevation1,667 ft
Report Wrong Elevation
Raw Report
OPRN 201900Z 13010KT 7000 SCT040 28/24 Q1006.9/29.73=

Extra information for OPRN:More info

Metar Taf Metar & Taf Last 4 Metars F.Rules Stats Wind Profile Meteogram Temp Stats Airport Information Weather charts Add Link Nearby VenuesMetar ALERT Operation Metar Decoded Social comments